createdAt,value
2019-02-19T00:00:05.133Z,95.00
2019-02-19T00:02:36.928Z,95.20
2019-02-19T00:05:18.061Z,95.30
2019-02-19T00:07:56.609Z,95.20
2019-02-19T00:10:28.379Z,95.20
2019-02-19T00:12:56.972Z,95.20
2019-02-19T00:15:27.198Z,95.70
2019-02-19T00:17:59.583Z,95.70
2019-02-19T00:20:38.595Z,95.90
2019-02-19T00:23:10.055Z,95.90
2019-02-19T00:25:38.207Z,96.90
2019-02-19T00:28:06.135Z,96.70
2019-02-19T00:30:35.662Z,96.20
2019-02-19T00:33:07.169Z,95.70
2019-02-19T00:36:08.799Z,94.80
2019-02-19T00:38:48.710Z,94.20
2019-02-19T00:41:38.973Z,93.70
2019-02-19T00:44:45.552Z,93.20
2019-02-19T00:49:59.252Z,92.70
2019-02-19T00:51:36.746Z,92.50
2019-02-19T00:54:20.864Z,92.40
2019-02-19T00:56:59.617Z,92.40
2019-02-19T01:02:04.704Z,91.90
2019-02-19T01:04:53.261Z,91.70
2019-02-19T01:08:20.267Z,91.60
2019-02-19T01:10:56.895Z,91.20
2019-02-19T01:13:45.009Z,90.90
2019-02-19T01:16:26.029Z,91.00
2019-02-19T01:19:42.543Z,90.60
2019-02-19T01:22:54.835Z,90.20
2019-02-19T01:29:38.923Z,90.00
2019-02-19T01:32:27.282Z,90.00
2019-02-19T01:35:03.771Z,89.60
2019-02-19T01:37:40.747Z,90.00
2019-02-19T01:40:38.255Z,89.70
2019-02-19T01:43:09.009Z,89.60
2019-02-19T01:45:48.815Z,89.70
2019-02-19T01:48:51.379Z,89.70
2019-02-19T01:55:30.658Z,90.10
2019-02-19T01:58:22.169Z,90.30
2019-02-19T02:01:18.816Z,90.40
2019-02-19T02:03:55.581Z,90.50
2019-02-19T02:06:23.524Z,90.50
2019-02-19T02:08:56.102Z,90.60
2019-02-19T02:11:24.028Z,90.70
2019-02-19T02:13:54.803Z,90.70
2019-02-19T02:16:31.857Z,90.80
2019-02-19T02:18:59.904Z,90.90
2019-02-19T02:22:06.188Z,91.30
2019-02-19T02:24:50.949Z,91.00
2019-02-19T02:28:19.216Z,91.00
2019-02-19T02:30:08.597Z,91.10
2019-02-19T02:32:36.235Z,91.00
2019-02-19T02:35:06.447Z,91.10
2019-02-19T02:37:35.507Z,91.00
2019-02-19T02:40:03.658Z,90.90
2019-02-19T02:42:35.647Z,90.90
2019-02-19T02:45:14.524Z,90.90
2019-02-19T02:47:44.816Z,90.80
2019-02-19T02:50:20.308Z,90.90
2019-02-19T02:52:53.125Z,90.90
2019-02-19T02:55:20.709Z,90.60
2019-02-19T02:57:48.146Z,90.70
2019-02-19T03:00:16.803Z,90.80
2019-02-19T03:02:48.386Z,90.70
2019-02-19T03:05:25.406Z,90.80
2019-02-19T03:10:52.228Z,90.80
2019-02-19T03:13:23.305Z,90.90
2019-02-19T03:16:05.772Z,90.90
2019-02-19T03:19:03.001Z,90.80
2019-02-19T03:21:44.895Z,91.00
2019-02-19T03:24:34.217Z,90.90
2019-02-19T03:27:05.008Z,91.00
2019-02-19T03:32:44.676Z,91.10
2019-02-19T03:35:13.269Z,91.10
2019-02-19T03:37:50.102Z,91.10
2019-02-19T03:40:47.799Z,91.20
2019-02-19T03:43:24.968Z,91.20
2019-02-19T03:45:59.810Z,91.30
2019-02-19T03:48:44.172Z,91.10
2019-02-19T03:51:12.414Z,91.10
2019-02-19T03:53:58.316Z,91.70
2019-02-19T03:56:24.733Z,91.30
2019-02-19T03:58:52.675Z,91.40
2019-02-19T04:01:31.789Z,91.50
2019-02-19T04:04:02.031Z,91.50
2019-02-19T04:06:35.235Z,91.60
2019-02-19T04:09:06.281Z,91.60
2019-02-19T04:11:34.075Z,91.70
2019-02-19T04:14:08.876Z,91.70
2019-02-19T04:16:40.699Z,91.80
2019-02-19T04:19:08.501Z,91.90
2019-02-19T04:21:38.439Z,92.00
2019-02-19T04:24:17.720Z,92.00
2019-02-19T04:27:21.712Z,92.00
2019-02-19T04:29:51.052Z,92.20
2019-02-19T04:32:29.318Z,92.30
2019-02-19T04:35:00.307Z,92.40
2019-02-19T04:37:55.395Z,92.50
2019-02-19T04:40:29.036Z,92.60
2019-02-19T04:43:28.878Z,92.60
2019-02-19T04:46:31.789Z,92.70
2019-02-19T04:49:07.202Z,92.90
2019-02-19T04:51:51.941Z,92.90
2019-02-19T04:54:30.048Z,93.00
2019-02-19T04:57:03.152Z,93.10
2019-02-19T04:59:36.955Z,93.20
2019-02-19T05:02:09.578Z,93.10
2019-02-19T05:04:51.778Z,93.10
2019-02-19T05:08:07.701Z,93.30
2019-02-19T05:14:06.002Z,93.40
2019-02-19T05:17:05.033Z,93.40
2019-02-19T05:19:46.467Z,93.30
2019-02-19T05:22:54.626Z,93.40
2019-02-19T05:26:18.640Z,93.40
2019-02-19T05:28:30.899Z,93.40
2019-02-19T05:31:18.191Z,93.50
2019-02-19T05:33:55.190Z,93.60
2019-02-19T05:36:25.971Z,93.60
2019-02-19T05:38:53.936Z,93.60
2019-02-19T05:41:27.097Z,93.70
2019-02-19T05:43:57.676Z,93.70
2019-02-19T05:46:49.609Z,93.80
2019-02-19T05:49:16.687Z,93.90
2019-02-19T05:51:49.218Z,94.00
2019-02-19T05:54:20.134Z,94.10
2019-02-19T05:56:53.279Z,94.10
2019-02-19T05:59:42.059Z,94.30
2019-02-19T06:02:36.964Z,94.20
2019-02-19T06:05:48.468Z,94.30
2019-02-19T06:08:17.020Z,94.30
2019-02-19T06:10:51.919Z,94.40
2019-02-19T06:13:24.942Z,94.40
2019-02-19T06:15:59.716Z,94.50
2019-02-19T06:18:55.503Z,94.40
2019-02-19T06:21:28.357Z,94.50
2019-02-19T06:23:56.136Z,94.50
2019-02-19T06:27:17.052Z,94.40
2019-02-19T06:30:01.235Z,94.50
2019-02-19T06:32:31.320Z,94.50
2019-02-19T06:35:00.782Z,94.50
2019-02-19T06:37:28.330Z,94.60
2019-02-19T06:39:55.692Z,94.70
2019-02-19T06:42:23.148Z,94.80
2019-02-19T06:44:50.601Z,94.90
2019-02-19T06:47:17.999Z,95.00
2019-02-19T06:49:45.516Z,94.90
2019-02-19T06:52:13.073Z,95.00
2019-02-19T06:54:40.409Z,94.80
2019-02-19T06:57:07.770Z,94.80
2019-02-19T06:59:35.094Z,94.60
2019-02-19T07:02:20.317Z,94.60
2019-02-19T07:04:56.846Z,94.60
2019-02-19T07:07:24.174Z,94.20
2019-02-19T07:09:51.639Z,94.40
2019-02-19T07:12:19.106Z,94.20
2019-02-19T07:14:46.704Z,94.00
2019-02-19T07:17:15.902Z,94.10
2019-02-19T07:19:43.456Z,94.30
2019-02-19T07:22:10.802Z,94.30
2019-02-19T07:24:38.495Z,94.30
2019-02-19T07:27:06.154Z,94.20
2019-02-19T07:29:33.742Z,94.30
2019-02-19T07:32:01.383Z,94.20
2019-02-19T07:34:29.044Z,94.10
2019-02-19T07:36:56.945Z,94.10
2019-02-19T07:39:24.382Z,94.10
2019-02-19T07:41:52.116Z,94.40
2019-02-19T07:44:19.399Z,94.20
2019-02-19T07:46:46.879Z,94.30
2019-02-19T07:49:14.516Z,94.40
2019-02-19T07:51:42.751Z,94.30
2019-02-19T07:54:10.217Z,94.40
2019-02-19T07:56:37.665Z,94.70
2019-02-19T07:59:05.076Z,94.90
2019-02-19T08:01:32.794Z,94.80
2019-02-19T08:04:00.295Z,95.00
2019-02-19T08:06:27.847Z,95.30
2019-02-19T08:08:55.288Z,95.60
2019-02-19T08:11:22.673Z,95.80
2019-02-19T08:13:50.059Z,96.10
2019-02-19T08:16:18.995Z,96.30
2019-02-19T08:18:46.452Z,96.60
2019-02-19T08:21:14.156Z,96.70
2019-02-19T08:23:41.607Z,96.80
2019-02-19T08:26:09.024Z,96.80
2019-02-19T08:28:36.393Z,97.00
2019-02-19T08:31:03.749Z,97.30
2019-02-19T08:33:31.174Z,97.40
2019-02-19T08:35:58.694Z,97.50
2019-02-19T08:38:26.058Z,97.60
2019-02-19T08:40:53.438Z,97.70
2019-02-19T08:43:21.029Z,97.70
2019-02-19T08:45:48.327Z,98.00
2019-02-19T08:48:15.697Z,98.30
2019-02-19T08:50:43.477Z,98.40
2019-02-19T08:53:10.878Z,98.70
2019-02-19T08:55:38.225Z,98.90
2019-02-19T08:58:05.598Z,99.10
2019-02-19T09:00:33.296Z,99.40
2019-02-19T09:03:00.985Z,99.30
2019-02-19T09:05:28.565Z,99.30
2019-02-19T09:07:55.966Z,99.30
2019-02-19T09:10:23.357Z,99.50
2019-02-19T09:12:50.763Z,99.60
2019-02-19T09:15:18.081Z,99.70
2019-02-19T09:17:51.675Z,99.60
2019-02-19T09:20:14.737Z,99.70
2019-02-19T09:22:42.094Z,99.70
2019-02-19T09:25:09.442Z,99.60
2019-02-19T09:27:36.769Z,99.70
2019-02-19T09:30:05.098Z,99.90
2019-02-19T09:32:32.528Z,99.90
2019-02-19T09:34:59.871Z,99.90
2019-02-19T09:37:27.305Z,99.90
2019-02-19T09:39:54.897Z,99.90
2019-02-19T09:42:22.432Z,99.90
2019-02-19T09:44:49.718Z,99.90
2019-02-19T09:47:17.324Z,99.90
2019-02-19T09:49:44.648Z,99.90
2019-02-19T09:52:12.096Z,99.90
2019-02-19T09:54:39.805Z,99.90
2019-02-19T09:57:07.206Z,99.90
2019-02-19T09:59:35.481Z,99.90
2019-02-19T10:02:03.051Z,99.90
2019-02-19T10:04:30.752Z,99.90
2019-02-19T10:06:58.460Z,99.90
2019-02-19T10:09:25.963Z,99.90
2019-02-19T10:11:53.506Z,99.90
2019-02-19T10:14:20.953Z,99.90
2019-02-19T10:16:48.377Z,99.90
2019-02-19T10:19:16.047Z,99.90
2019-02-19T10:21:43.546Z,99.90
2019-02-19T10:24:11.052Z,99.90
2019-02-19T10:26:38.460Z,99.90
2019-02-19T10:29:05.879Z,99.90
2019-02-19T10:31:33.170Z,99.90
2019-02-19T10:34:00.663Z,99.90
2019-02-19T10:36:28.126Z,99.90
2019-02-19T10:38:55.583Z,99.90
2019-02-19T10:41:23.161Z,99.90
2019-02-19T10:43:50.486Z,99.90
2019-02-19T10:46:18.157Z,99.90
2019-02-19T10:48:45.610Z,99.90
2019-02-19T10:51:13.011Z,99.80
2019-02-19T10:53:40.380Z,99.60
2019-02-19T10:56:07.808Z,99.20
2019-02-19T10:58:35.263Z,99.60
2019-02-19T11:01:02.712Z,99.20
2019-02-19T11:03:30.399Z,99.00
2019-02-19T11:05:57.984Z,98.90
2019-02-19T11:08:25.476Z,99.50
2019-02-19T11:10:52.890Z,97.90
2019-02-19T11:13:20.676Z,97.80
2019-02-19T11:15:48.246Z,97.50
2019-02-19T11:18:15.465Z,97.70
2019-02-19T11:20:43.051Z,96.40
2019-02-19T11:23:10.461Z,97.40
2019-02-19T11:25:37.895Z,96.40
2019-02-19T11:28:05.206Z,96.40
2019-02-19T11:30:32.950Z,95.90
2019-02-19T11:33:00.376Z,95.30
2019-02-19T11:35:28.068Z,96.20
2019-02-19T11:37:55.746Z,96.10
2019-02-19T11:40:23.199Z,95.20
2019-02-19T11:42:50.879Z,96.40
2019-02-19T11:45:18.351Z,95.60
2019-02-19T11:47:45.980Z,94.70
2019-02-19T11:50:13.934Z,94.00
2019-02-19T11:52:41.447Z,93.60
2019-02-19T11:55:10.406Z,93.30
2019-02-19T11:57:37.826Z,92.40
2019-02-19T12:00:06.367Z,92.50
2019-02-19T12:02:33.788Z,90.90
2019-02-19T12:05:01.490Z,90.90
2019-02-19T12:07:29.004Z,89.70
2019-02-19T12:09:56.421Z,90.00
2019-02-19T12:12:23.713Z,89.20
2019-02-19T12:14:51.255Z,90.10
2019-02-19T12:17:18.641Z,88.10
2019-02-19T12:19:46.006Z,86.50
2019-02-19T12:22:13.412Z,89.30
2019-02-19T12:24:41.041Z,87.80
2019-02-19T12:27:08.930Z,89.60
2019-02-19T12:29:36.711Z,88.60
2019-02-19T12:32:04.044Z,88.60
2019-02-19T12:34:31.650Z,86.90
2019-02-19T12:36:59.648Z,90.00
2019-02-19T12:39:27.015Z,90.90
2019-02-19T12:41:54.338Z,88.00
2019-02-19T12:44:21.682Z,88.00
2019-02-19T12:46:49.286Z,88.40
2019-02-19T12:49:16.647Z,88.70
2019-02-19T12:51:44.297Z,89.70
2019-02-19T12:54:11.910Z,90.30
2019-02-19T12:56:39.397Z,90.60
2019-02-19T12:59:06.709Z,90.20
2019-02-19T13:01:34.040Z,91.50
2019-02-19T13:04:01.468Z,90.90
2019-02-19T13:06:28.942Z,90.20
2019-02-19T13:08:56.627Z,90.40
2019-02-19T13:11:24.156Z,88.70
2019-02-19T13:13:51.855Z,90.70
2019-02-19T13:16:19.340Z,88.80
2019-02-19T13:18:47.326Z,88.60
2019-02-19T13:21:14.667Z,87.30
2019-02-19T13:23:41.993Z,88.60
2019-02-19T13:26:09.684Z,88.70
2019-02-19T13:28:37.865Z,89.70
2019-02-19T13:31:05.552Z,86.10
2019-02-19T13:33:33.256Z,88.80
2019-02-19T13:36:00.896Z,86.50
2019-02-19T13:38:28.683Z,84.40
2019-02-19T13:40:56.546Z,84.40
2019-02-19T13:43:24.116Z,82.70
2019-02-19T13:45:51.555Z,82.30
2019-02-19T13:48:19.585Z,79.80
2019-02-19T13:50:47.773Z,81.20
2019-02-19T13:53:29.634Z,81.30
2019-02-19T13:55:58.611Z,79.30
2019-02-19T13:58:27.996Z,78.40
2019-02-19T14:00:56.010Z,78.40
2019-02-19T14:03:23.780Z,78.70
2019-02-19T14:05:51.407Z,79.20
2019-02-19T14:08:20.413Z,80.50
2019-02-19T14:10:48.400Z,77.40
2019-02-19T14:13:16.343Z,75.80
2019-02-19T14:16:09.148Z,75.80
2019-02-19T14:18:53.996Z,75.60
2019-02-19T14:21:55.964Z,77.40
2019-02-19T14:24:33.728Z,77.00
2019-02-19T14:27:32.937Z,76.30
2019-02-19T14:30:20.399Z,75.40
2019-02-19T14:33:08.080Z,73.90
2019-02-19T14:35:53.822Z,73.30
2019-02-19T14:38:39.534Z,73.40
2019-02-19T14:41:26.897Z,74.60
2019-02-19T14:44:12.657Z,74.40
2019-02-19T14:47:11.768Z,74.10
2019-02-19T14:49:51.244Z,73.80
2019-02-19T14:52:36.731Z,74.90
2019-02-19T14:55:14.275Z,74.90
2019-02-19T14:58:16.483Z,75.40
2019-02-19T15:01:12.487Z,75.10
2019-02-19T15:04:12.408Z,75.60
2019-02-19T15:07:05.609Z,74.60
2019-02-19T15:09:52.498Z,75.50
2019-02-19T15:12:28.851Z,74.80
2019-02-19T15:15:21.647Z,74.90
2019-02-19T15:18:08.908Z,74.30
2019-02-19T15:20:56.358Z,74.00
2019-02-19T15:23:46.460Z,74.10
2019-02-19T15:26:33.480Z,73.40
2019-02-19T15:29:18.883Z,73.60
2019-02-19T15:32:14.993Z,73.50
2019-02-19T15:35:14.204Z,72.70
2019-02-19T15:38:13.059Z,72.70
2019-02-19T15:41:06.015Z,72.40
2019-02-19T15:43:51.450Z,70.30
2019-02-19T15:46:32.935Z,69.70
2019-02-19T15:49:18.187Z,69.60
2019-02-19T15:52:00.017Z,70.20
2019-02-19T15:54:52.799Z,69.90
2019-02-19T15:57:38.645Z,70.00
2019-02-19T16:00:37.748Z,68.90
2019-02-19T16:03:19.674Z,68.60
2019-02-19T16:05:58.043Z,69.00
2019-02-19T16:08:50.842Z,68.70
2019-02-19T16:11:36.475Z,69.30
2019-02-19T16:14:16.838Z,70.30
2019-02-19T16:16:58.190Z,70.90
2019-02-19T16:19:32.616Z,72.50
2019-02-19T16:22:28.838Z,73.00
2019-02-19T16:25:18.602Z,74.50
2019-02-19T16:28:11.187Z,75.90
2019-02-19T16:30:47.428Z,76.90
2019-02-19T16:33:37.116Z,78.20
2019-02-19T16:36:10.852Z,79.20
2019-02-19T16:38:50.467Z,79.90
2019-02-19T16:41:25.769Z,80.40
2019-02-19T16:44:02.341Z,80.80
2019-02-19T16:46:55.397Z,81.30
2019-02-19T16:50:07.349Z,81.90
2019-02-19T16:52:52.198Z,82.70
2019-02-19T16:55:38.271Z,83.20
2019-02-19T16:58:35.334Z,83.80
2019-02-19T17:01:43.093Z,84.60
2019-02-19T17:04:19.915Z,85.20
2019-02-19T17:07:10.063Z,85.60
2019-02-19T17:09:46.497Z,86.30
2019-02-19T17:12:31.896Z,87.20
2019-02-19T17:15:17.457Z,87.90
2019-02-19T17:17:58.003Z,88.70
2019-02-19T17:20:35.156Z,89.00
2019-02-19T17:23:11.885Z,89.60
2019-02-19T17:26:11.555Z,89.90
2019-02-19T17:29:01.698Z,90.00
2019-02-19T17:31:54.562Z,90.20
2019-02-19T17:34:40.560Z,90.40
2019-02-19T17:37:17.425Z,90.60
2019-02-19T17:40:01.432Z,90.80
2019-02-19T17:42:54.270Z,91.00
2019-02-19T17:45:50.872Z,91.10
2019-02-19T17:48:40.894Z,91.30
2019-02-19T17:51:43.151Z,91.30
2019-02-19T17:54:32.704Z,91.40
2019-02-19T17:57:08.736Z,91.40
2019-02-19T17:59:50.686Z,91.60
2019-02-19T18:02:39.095Z,91.70
2019-02-19T18:05:19.081Z,91.80
2019-02-19T18:08:06.156Z,92.40
2019-02-19T18:10:51.228Z,92.30
2019-02-19T18:13:53.332Z,92.30
2019-02-19T18:16:58.618Z,92.50
2019-02-19T18:19:26.484Z,92.60
2019-02-19T18:21:54.613Z,92.70
2019-02-19T18:24:22.389Z,93.00
2019-02-19T18:26:50.659Z,93.10
2019-02-19T18:29:18.557Z,93.30
2019-02-19T18:31:46.494Z,93.50
2019-02-19T18:34:14.536Z,93.70
2019-02-19T18:36:42.036Z,93.70
2019-02-19T18:39:09.490Z,93.80
2019-02-19T18:41:37.174Z,94.00
2019-02-19T18:44:04.566Z,93.90
2019-02-19T18:46:32.274Z,93.80
2019-02-19T18:49:00.194Z,93.80
2019-02-19T18:51:27.970Z,93.80
2019-02-19T18:53:55.506Z,93.90
2019-02-19T18:56:23.871Z,93.90
2019-02-19T18:58:51.713Z,94.00
2019-02-19T19:01:19.741Z,94.00
2019-02-19T19:03:47.803Z,94.10
2019-02-19T19:06:15.512Z,94.20
2019-02-19T19:08:43.221Z,94.20
2019-02-19T19:11:11.092Z,94.30
2019-02-19T19:13:39.597Z,94.40
2019-02-19T19:16:07.092Z,94.50
2019-02-19T19:18:34.538Z,94.50
2019-02-19T19:21:07.943Z,94.40
2019-02-19T19:23:31.538Z,94.40
2019-02-19T19:25:59.407Z,94.50
2019-02-19T19:28:27.072Z,94.50
2019-02-19T19:30:54.553Z,94.50
2019-02-19T19:33:22.235Z,94.50
2019-02-19T19:35:49.824Z,94.50
2019-02-19T19:38:17.240Z,94.50
2019-02-19T19:40:44.726Z,94.60
2019-02-19T19:43:12.134Z,94.70
2019-02-19T19:45:40.036Z,94.80
2019-02-19T19:48:07.816Z,95.00
2019-02-19T19:50:35.777Z,95.10
2019-02-19T19:53:03.736Z,95.10
2019-02-19T19:55:31.585Z,95.30
2019-02-19T19:57:59.542Z,95.40
2019-02-19T20:00:27.721Z,95.40
2019-02-19T20:02:55.160Z,95.50
2019-02-19T20:05:22.728Z,95.50
2019-02-19T20:07:50.365Z,95.50
2019-02-19T20:10:17.820Z,95.60
2019-02-19T20:12:45.384Z,95.70
2019-02-19T20:15:13.112Z,95.70
2019-02-19T20:17:40.706Z,95.70
2019-02-19T20:20:08.162Z,95.70
2019-02-19T20:22:35.977Z,95.80
2019-02-19T20:25:03.581Z,95.80
2019-02-19T20:27:31.139Z,95.90
2019-02-19T20:29:58.933Z,95.90
2019-02-19T20:32:26.340Z,95.90
2019-02-19T20:34:54.012Z,95.90
2019-02-19T20:37:22.209Z,96.00
2019-02-19T20:39:50.162Z,96.00
2019-02-19T20:42:17.732Z,96.00
2019-02-19T20:44:45.261Z,96.00
2019-02-19T20:47:13.002Z,96.10
2019-02-19T20:49:40.529Z,96.00
2019-02-19T20:52:08.238Z,96.30
2019-02-19T20:54:35.761Z,96.20
2019-02-19T20:57:03.318Z,96.30
2019-02-19T20:59:31.753Z,96.30
2019-02-19T21:01:59.546Z,96.80
2019-02-19T21:04:27.583Z,96.50
2019-02-19T21:06:55.457Z,96.50
2019-02-19T21:09:23.503Z,96.70
2019-02-19T21:11:51.985Z,96.60
2019-02-19T21:14:20.247Z,96.70
2019-02-19T21:16:49.509Z,96.70
2019-02-19T21:19:17.611Z,96.70
2019-02-19T21:21:45.361Z,96.70
2019-02-19T21:24:13.517Z,96.70
2019-02-19T21:26:41.735Z,96.80
2019-02-19T21:29:10.144Z,96.80
2019-02-19T21:31:38.328Z,96.90
2019-02-19T21:34:06.664Z,96.90
2019-02-19T21:36:34.615Z,96.90
2019-02-19T21:39:04.167Z,96.80
2019-02-19T21:41:31.649Z,96.90
2019-02-19T21:43:59.116Z,96.90
2019-02-19T21:46:26.497Z,97.00
2019-02-19T21:48:54.078Z,97.00
2019-02-19T21:51:21.701Z,97.00
2019-02-19T21:53:49.894Z,97.10
2019-02-19T21:56:17.406Z,97.20
2019-02-19T21:58:44.775Z,97.40
2019-02-19T22:01:12.565Z,97.50
2019-02-19T22:03:40.351Z,97.60
2019-02-19T22:06:07.804Z,97.60
2019-02-19T22:08:35.483Z,97.50
2019-02-19T22:11:02.901Z,97.40
2019-02-19T22:13:30.566Z,97.50
2019-02-19T22:15:58.082Z,97.60
2019-02-19T22:18:26.775Z,97.70
2019-02-19T22:21:03.664Z,97.90
2019-02-19T22:23:31.418Z,97.90
2019-02-19T22:25:58.890Z,98.00
2019-02-19T22:28:26.322Z,98.00
2019-02-19T22:30:53.884Z,98.10
2019-02-19T22:33:21.378Z,98.10
2019-02-19T22:35:49.219Z,98.10
2019-02-19T22:38:16.719Z,98.00
2019-02-19T22:40:44.162Z,97.90
2019-02-19T22:43:12.290Z,97.90
2019-02-19T22:45:40.061Z,98.00
2019-02-19T22:48:07.699Z,98.00
2019-02-19T22:50:35.570Z,98.10
2019-02-19T22:53:05.982Z,98.10
2019-02-19T22:55:53.264Z,97.90
2019-02-19T22:58:20.825Z,97.90
2019-02-19T23:00:58.252Z,98.30
2019-02-19T23:03:26.282Z,98.40
2019-02-19T23:05:53.750Z,98.70
2019-02-19T23:08:21.886Z,98.70
2019-02-19T23:10:49.532Z,98.70
2019-02-19T23:13:17.700Z,98.80
2019-02-19T23:15:45.215Z,98.80
2019-02-19T23:18:12.727Z,98.70
2019-02-19T23:20:40.212Z,98.80
2019-02-19T23:23:07.982Z,98.80
2019-02-19T23:25:35.699Z,98.70
2019-02-19T23:28:03.283Z,98.70
2019-02-19T23:30:30.752Z,98.60
2019-02-19T23:32:58.150Z,98.80
2019-02-19T23:35:31.528Z,98.90
2019-02-19T23:37:59.228Z,98.90
2019-02-19T23:40:26.690Z,98.80
2019-02-19T23:42:54.170Z,98.90
2019-02-19T23:45:21.742Z,98.70
2019-02-19T23:47:49.288Z,98.70
2019-02-19T23:50:17.168Z,98.70
2019-02-19T23:52:44.598Z,98.80
2019-02-19T23:55:12.320Z,99.00
2019-02-19T23:57:39.746Z,99.30
